createdAt,value
2018-04-14T00:01:41.316Z,43.80
2018-04-14T00:04:08.157Z,37.30
2018-04-14T00:06:34.236Z,44.78
2018-04-14T00:09:01.114Z,50.33
2018-04-14T00:11:27.572Z,44.13
2018-04-14T00:13:54.538Z,47.53
2018-04-14T00:16:20.617Z,44.10
2018-04-14T00:18:46.802Z,42.57
2018-04-14T00:21:12.960Z,42.40
2018-04-14T00:23:39.992Z,43.23
2018-04-14T00:26:06.093Z,44.53
2018-04-14T00:28:32.214Z,44.60
2018-04-14T00:30:59.182Z,44.53
2018-04-14T00:33:25.373Z,43.07
2018-04-14T00:35:51.457Z,43.10
2018-04-14T00:38:19.644Z,44.10
2018-04-14T00:40:45.717Z,45.17
2018-04-14T00:43:11.798Z,45.70
2018-04-14T00:45:38.693Z,47.83
2018-04-14T00:48:04.784Z,45.07
2018-04-14T00:50:31.747Z,48.03
2018-04-14T00:53:10.304Z,43.77
2018-04-14T00:55:36.413Z,43.00
2018-04-14T00:58:02.646Z,46.93
2018-04-14T01:00:28.854Z,50.10
2018-04-14T01:02:54.961Z,44.07
2018-04-14T01:05:21.041Z,51.60
2018-04-14T01:07:47.221Z,44.30
2018-04-14T01:10:13.343Z,51.05
2018-04-14T01:12:39.429Z,45.53
2018-04-14T01:15:05.635Z,47.13
2018-04-14T01:17:32.588Z,51.43
2018-04-14T01:19:58.780Z,50.50
2018-04-14T01:22:24.856Z,51.73
2018-04-14T01:24:51.676Z,49.27
2018-04-14T01:27:17.921Z,47.65
2018-04-14T01:29:44.756Z,48.03
2018-04-14T01:32:10.841Z,48.43
2018-04-14T01:34:36.946Z,51.03
2018-04-14T01:37:03.132Z,47.83
2018-04-14T01:39:29.273Z,52.67
2018-04-14T01:41:55.385Z,49.27
2018-04-14T01:44:21.518Z,63.22
2018-04-14T01:46:48.475Z,61.42
2018-04-14T01:49:14.671Z,61.53
2018-04-14T01:51:40.724Z,59.03
2018-04-14T01:54:06.800Z,61.90
2018-04-14T01:56:32.969Z,59.77
2018-04-14T01:58:59.348Z,68.23
2018-04-14T02:01:26.196Z,57.27
2018-04-14T02:03:52.385Z,59.97
2018-04-14T02:06:18.552Z,66.20
2018-04-14T02:08:45.440Z,63.70
2018-04-14T02:11:11.543Z,65.80
2018-04-14T02:13:37.618Z,62.33
2018-04-14T02:16:03.824Z,61.90
2018-04-14T02:18:30.043Z,62.63
2018-04-14T02:20:56.211Z,59.67
2018-04-14T02:23:22.279Z,57.57
2018-04-14T02:25:49.276Z,67.37
2018-04-14T02:28:15.350Z,60.87
2018-04-14T02:30:41.427Z,64.97
2018-04-14T02:33:08.279Z,60.40
2018-04-14T02:35:35.148Z,61.50
2018-04-14T02:38:01.279Z,68.60
2018-04-14T02:40:28.214Z,59.30
2018-04-14T02:42:55.108Z,55.70
2018-04-14T02:45:21.206Z,56.63
2018-04-14T02:47:48.072Z,61.93
2018-04-14T02:50:14.161Z,61.50
2018-04-14T02:52:40.279Z,60.77
2018-04-14T02:55:06.348Z,59.27
2018-04-14T02:57:32.481Z,58.37
2018-04-14T02:59:58.665Z,65.60
2018-04-14T03:02:24.741Z,69.07
2018-04-14T03:04:50.916Z,60.67
2018-04-14T03:07:17.057Z,63.50
2018-04-14T03:09:43.922Z,60.05
2018-04-14T03:12:10.071Z,59.67
2018-04-14T03:14:36.155Z,64.80
2018-04-14T03:17:02.342Z,57.20
2018-04-14T03:19:28.572Z,60.00
2018-04-14T03:21:54.673Z,59.05
2018-04-14T03:24:20.729Z,62.17
2018-04-14T03:26:47.001Z,63.78
2018-04-14T03:29:13.077Z,67.03
2018-04-14T03:31:39.150Z,69.77
2018-04-14T03:34:05.222Z,64.17
2018-04-14T03:36:31.413Z,80.67
2018-04-14T03:38:58.313Z,73.73
2018-04-14T03:41:24.428Z,67.80
2018-04-14T03:43:50.557Z,65.68
2018-04-14T03:46:16.663Z,66.23
2018-04-14T03:48:42.777Z,71.93
2018-04-14T03:51:08.901Z,61.10
2018-04-14T03:53:35.141Z,68.90
2018-04-14T03:56:02.088Z,83.90
2018-04-14T03:58:29.074Z,79.73
2018-04-14T04:00:55.187Z,73.93
2018-04-14T04:03:21.432Z,77.80
2018-04-14T04:05:47.645Z,70.45
2018-04-14T04:08:14.487Z,82.20
2018-04-14T04:10:40.691Z,74.55
2018-04-14T04:13:06.863Z,66.87
2018-04-14T04:15:33.614Z,66.72
2018-04-14T04:17:59.737Z,69.93
2018-04-14T04:23:37.664Z,69.87
2018-04-14T04:26:04.658Z,65.93
2018-04-14T04:28:31.158Z,61.08
2018-04-14T04:30:57.424Z,70.28
2018-04-14T04:33:24.373Z,74.47
2018-04-14T04:35:50.518Z,62.20
2018-04-14T04:38:16.774Z,72.47
2018-04-14T04:40:42.906Z,76.57
2018-04-14T04:43:10.464Z,78.47
2018-04-14T04:45:36.605Z,83.03
2018-04-14T04:48:02.749Z,73.22
2018-04-14T04:50:28.880Z,71.70
2018-04-14T04:52:55.051Z,74.87
2018-04-14T04:55:21.196Z,70.53
2018-04-14T04:57:48.096Z,74.97
2018-04-14T05:00:14.282Z,74.97
2018-04-14T05:02:41.134Z,73.10
2018-04-14T05:05:07.209Z,73.90
2018-04-14T05:07:33.390Z,75.78
2018-04-14T05:09:59.532Z,75.72
2018-04-14T05:12:25.606Z,77.55
2018-04-14T05:14:52.412Z,70.37
2018-04-14T05:17:18.470Z,77.12
2018-04-14T05:19:44.525Z,78.93
2018-04-14T05:22:10.601Z,74.50
2018-04-14T05:24:36.689Z,68.45
2018-04-14T05:27:02.806Z,74.03
2018-04-14T05:29:29.053Z,74.40
2018-04-14T05:31:55.872Z,74.53
2018-04-14T05:34:22.082Z,78.80
2018-04-14T05:36:48.917Z,81.37
2018-04-14T05:39:15.796Z,75.20
2018-04-14T05:41:41.878Z,75.20
2018-04-14T05:44:07.960Z,77.90
2018-04-14T05:46:34.050Z,81.50
2018-04-14T05:49:00.196Z,76.30
2018-04-14T05:51:26.298Z,81.67
2018-04-14T05:53:52.381Z,74.70
2018-04-14T05:56:18.539Z,85.10
2018-04-14T05:58:45.480Z,83.30
2018-04-14T06:01:12.320Z,87.57
2018-04-14T06:03:38.408Z,73.12
2018-04-14T06:06:04.485Z,82.28
2018-04-14T06:08:30.702Z,81.57
2018-04-14T06:10:56.818Z,81.72
2018-04-14T06:13:22.896Z,76.97
2018-04-14T06:15:48.967Z,85.22
2018-04-14T06:18:15.860Z,72.53
2018-04-14T06:20:41.961Z,79.37
2018-04-14T06:23:08.769Z,80.78
2018-04-14T06:25:34.924Z,82.57
2018-04-14T06:28:01.114Z,81.20
2018-04-14T06:30:27.405Z,84.28
2018-04-14T06:32:54.268Z,72.87
2018-04-14T06:35:20.393Z,69.73
2018-04-14T06:37:46.504Z,80.00
2018-04-14T06:40:12.609Z,79.30
2018-04-14T06:42:39.441Z,76.70
2018-04-14T06:45:11.588Z,87.70
2018-04-14T06:47:37.694Z,72.80
2018-04-14T06:50:04.059Z,76.68
2018-04-14T06:52:31.379Z,74.30
2018-04-14T06:54:59.359Z,73.57
2018-04-14T06:57:26.218Z,78.90
2018-04-14T06:59:55.984Z,78.07
2018-04-14T07:02:22.100Z,81.60
2018-04-14T07:04:51.759Z,71.43
2018-04-14T07:07:17.920Z,77.40
2018-04-14T07:09:57.768Z,80.23
2018-04-14T07:12:23.916Z,74.90
2018-04-14T07:14:55.654Z,69.37
2018-04-14T07:17:21.725Z,64.73
2018-04-14T07:19:47.919Z,59.67
2018-04-14T07:22:14.012Z,54.97
2018-04-14T07:24:40.095Z,54.00
2018-04-14T07:27:06.189Z,48.37
2018-04-14T07:29:33.156Z,47.90
2018-04-14T07:31:59.370Z,53.17
2018-04-14T07:34:26.261Z,52.17
2018-04-14T07:36:58.293Z,51.80
2018-04-14T07:39:25.141Z,48.83
2018-04-14T07:41:51.327Z,52.50
2018-04-14T07:44:17.374Z,51.33
2018-04-14T07:46:43.470Z,49.75
2018-04-14T07:49:10.298Z,54.50
2018-04-14T07:51:36.394Z,54.10
2018-04-14T07:54:04.163Z,50.70
2018-04-14T07:56:30.498Z,49.43
2018-04-14T07:58:56.610Z,47.90
2018-04-14T08:01:23.430Z,46.50
2018-04-14T08:03:49.506Z,44.57
2018-04-14T08:06:19.858Z,44.60
2018-04-14T08:08:46.844Z,46.43
2018-04-14T08:11:12.944Z,43.33
2018-04-14T08:13:39.133Z,46.67
2018-04-14T08:16:05.197Z,43.50
2018-04-14T08:18:31.396Z,42.10
2018-04-14T08:20:57.694Z,41.20
2018-04-14T08:23:32.493Z,41.00
2018-04-14T08:25:59.851Z,48.80
2018-04-14T08:28:26.137Z,43.03
2018-04-14T08:30:52.391Z,44.40
2018-04-14T08:33:18.816Z,44.13
2018-04-14T08:35:45.120Z,44.67
2018-04-14T08:38:12.130Z,45.80
2018-04-14T08:40:38.416Z,42.80
2018-04-14T08:43:04.770Z,47.50
2018-04-14T08:45:31.145Z,42.13
2018-04-14T08:47:58.579Z,44.37
2018-04-14T08:50:25.247Z,43.77
2018-04-14T08:52:51.567Z,44.20
2018-04-14T08:55:17.996Z,43.00
2018-04-14T08:57:44.272Z,44.33
2018-04-14T09:00:10.594Z,43.60
2018-04-14T09:02:36.911Z,39.43
2018-04-14T09:05:04.052Z,48.50
2018-04-14T09:07:30.435Z,40.53
2018-04-14T09:09:56.854Z,41.80
2018-04-14T09:12:23.186Z,49.57
2018-04-14T09:14:49.522Z,46.40
2018-04-14T09:17:16.929Z,48.67
2018-04-14T09:19:43.313Z,45.50
2018-04-14T09:22:09.629Z,52.30
2018-04-14T09:24:36.009Z,48.47
2018-04-14T09:27:02.381Z,47.30
2018-04-14T09:29:29.760Z,45.03
2018-04-14T09:31:56.061Z,42.10
2018-04-14T09:34:22.330Z,46.00
2018-04-14T09:36:48.677Z,41.87
2018-04-14T09:39:15.011Z,41.10
2018-04-14T09:41:44.241Z,45.80
2018-04-14T09:44:11.275Z,48.77
2018-04-14T09:46:37.540Z,44.93
2018-04-14T09:49:05.305Z,44.67
2018-04-14T09:51:32.405Z,46.97
2018-04-14T09:53:58.823Z,50.83
2018-04-14T09:56:25.230Z,51.77
2018-04-14T09:58:52.236Z,46.03
2018-04-14T10:01:25.382Z,49.03
2018-04-14T10:03:58.373Z,50.53
2018-04-14T10:06:24.741Z,43.60
2018-04-14T10:08:51.251Z,51.47
2018-04-14T10:11:17.565Z,52.53
2018-04-14T10:13:43.865Z,51.27
2018-04-14T10:16:10.236Z,53.67
2018-04-14T10:18:36.589Z,54.27
2018-04-14T10:21:02.937Z,51.17
2018-04-14T10:23:30.089Z,53.53
2018-04-14T10:25:56.411Z,50.77
2018-04-14T10:28:23.632Z,53.53
2018-04-14T10:30:49.941Z,52.57
2018-04-14T10:33:16.954Z,58.57
2018-04-14T10:35:43.225Z,58.73
2018-04-14T10:38:10.345Z,51.93
2018-04-14T10:40:36.604Z,48.07
2018-04-14T10:43:03.080Z,52.57
2018-04-14T10:45:29.525Z,55.80
2018-04-14T10:47:55.834Z,55.97
2018-04-14T10:50:22.109Z,54.17
2018-04-14T10:52:48.569Z,47.93
2018-04-14T10:55:14.865Z,48.50
2018-04-14T10:57:41.909Z,57.70
2018-04-14T11:00:08.154Z,47.57
2018-04-14T11:02:36.512Z,58.23
2018-04-14T11:05:05.796Z,51.47
2018-04-14T11:07:34.019Z,60.40
2018-04-14T11:10:00.784Z,53.60
2018-04-14T11:12:27.706Z,52.70
2018-04-14T11:14:54.280Z,55.33
2018-04-14T11:17:20.552Z,52.60
2018-04-14T11:19:46.962Z,53.37
2018-04-14T11:22:14.038Z,53.73
2018-04-14T11:24:40.332Z,48.70
2018-04-14T11:27:06.605Z,53.10
2018-04-14T11:29:32.932Z,56.43
2018-04-14T11:31:59.245Z,51.33
2018-04-14T11:34:27.104Z,54.13
2018-04-14T11:36:54.150Z,54.70
2018-04-14T11:39:20.429Z,53.63
2018-04-14T11:41:46.741Z,57.73
2018-04-14T11:44:13.049Z,54.03
2018-04-14T11:46:39.325Z,57.00
2018-04-14T11:49:08.649Z,53.53
2018-04-14T11:51:34.949Z,51.50
2018-04-14T11:54:01.269Z,54.20
2018-04-14T11:56:27.646Z,58.10
2018-04-14T11:58:53.970Z,50.80
2018-04-14T12:01:20.262Z,51.10
2018-04-14T12:03:47.383Z,57.20
2018-04-14T12:06:13.749Z,58.47
2018-04-14T12:08:40.036Z,50.53
2018-04-14T12:11:06.305Z,47.03
2018-04-14T12:13:32.889Z,49.70
2018-04-14T12:16:00.041Z,53.67
2018-04-14T12:18:26.554Z,51.90
2018-04-14T12:20:52.880Z,49.73
2018-04-14T12:23:19.167Z,46.57
2018-04-14T12:25:45.499Z,48.47
2018-04-14T12:28:13.837Z,44.70
2018-04-14T12:30:40.861Z,49.30
2018-04-14T12:33:07.140Z,47.37
2018-04-14T12:35:33.504Z,51.97
2018-04-14T12:37:59.860Z,53.90
2018-04-14T12:40:26.204Z,54.73
2018-04-14T12:42:52.497Z,54.03
2018-04-14T12:45:23.429Z,47.80
2018-04-14T12:47:49.629Z,48.30
2018-04-14T12:50:15.936Z,49.70
2018-04-14T12:52:42.968Z,53.80
2018-04-14T12:55:09.277Z,49.67
2018-04-14T12:57:35.562Z,52.07
2018-04-14T13:00:01.907Z,40.73
2018-04-14T13:02:29.729Z,44.63
2018-04-14T13:04:59.228Z,45.97
2018-04-14T13:07:28.936Z,43.13
2018-04-14T13:09:55.435Z,47.87
2018-04-14T13:12:21.729Z,41.47
2018-04-14T13:14:48.078Z,41.77
2018-04-14T13:17:14.466Z,38.33
2018-04-14T13:19:40.752Z,35.80
2018-04-14T13:22:07.289Z,36.60
2018-04-14T13:24:33.585Z,37.73
2018-04-14T13:27:00.696Z,39.70
2018-04-14T13:29:27.200Z,35.17
2018-04-14T13:31:53.558Z,34.33
2018-04-14T13:34:20.862Z,39.83
2018-04-14T13:36:47.942Z,38.23
2018-04-14T13:39:14.201Z,38.07
2018-04-14T13:41:41.494Z,37.40
2018-04-14T13:44:07.904Z,38.03
2018-04-14T13:46:35.000Z,38.47
2018-04-14T13:49:01.337Z,39.57
2018-04-14T13:51:27.725Z,37.30
2018-04-14T13:53:56.810Z,36.60
2018-04-14T13:56:23.156Z,40.70
2018-04-14T13:58:49.585Z,42.03
2018-04-14T14:01:15.920Z,39.17
2018-04-14T14:03:42.217Z,34.57
2018-04-14T14:06:08.484Z,36.23
2018-04-14T14:08:34.769Z,31.93
2018-04-14T14:11:01.224Z,46.10
2018-04-14T14:13:27.693Z,52.13
2018-04-14T14:15:53.959Z,44.10
2018-04-14T14:18:20.265Z,40.97
2018-04-14T14:20:46.611Z,38.40
2018-04-14T14:23:13.076Z,45.03
2018-04-14T14:25:39.349Z,35.30
2018-04-14T14:28:05.657Z,36.10
2018-04-14T14:30:32.007Z,34.73
2018-04-14T14:33:00.573Z,31.20
2018-04-14T14:35:27.694Z,29.97
2018-04-14T14:37:56.093Z,32.13
2018-04-14T14:40:22.368Z,36.40
2018-04-14T14:42:49.426Z,38.53
2018-04-14T14:45:15.708Z,37.33
2018-04-14T14:47:42.123Z,33.27
2018-04-14T14:53:05.017Z,31.30
2018-04-14T14:55:32.160Z,31.87
2018-04-14T14:57:58.473Z,33.70
2018-04-14T15:00:25.648Z,35.03
2018-04-14T15:02:51.981Z,34.83
2018-04-14T15:05:18.901Z,32.47
2018-04-14T15:07:45.504Z,31.87
2018-04-14T15:10:11.801Z,34.80
2018-04-14T15:12:38.829Z,27.87
2018-04-14T15:15:05.903Z,23.23
2018-04-14T15:17:32.252Z,27.23
2018-04-14T15:20:00.149Z,29.60
2018-04-14T15:22:27.207Z,29.60
2018-04-14T15:24:53.513Z,31.43
2018-04-14T15:27:19.856Z,33.00
2018-04-14T15:29:46.162Z,27.43
2018-04-14T15:32:13.162Z,25.20
2018-04-14T15:34:44.408Z,25.53
2018-04-14T15:37:10.673Z,24.57
2018-04-14T15:39:36.913Z,25.50
2018-04-14T15:42:03.195Z,22.90
2018-04-14T15:44:30.243Z,27.73
2018-04-14T15:46:57.353Z,24.60
2018-04-14T15:49:23.588Z,27.37
2018-04-14T15:51:49.937Z,26.00
2018-04-14T15:54:16.173Z,23.43
2018-04-14T15:56:42.432Z,21.53
2018-04-14T15:59:08.701Z,22.63
2018-04-14T16:01:34.961Z,25.20
2018-04-14T16:04:09.656Z,28.17
2018-04-14T16:06:27.655Z,27.87
2018-04-14T16:08:54.717Z,25.20
2018-04-14T16:11:20.988Z,26.77
2018-04-14T16:13:48.773Z,25.53
2018-04-14T16:16:15.060Z,24.27
2018-04-14T16:18:42.082Z,24.10
2018-04-14T16:21:08.341Z,41.80
2018-04-14T16:23:34.614Z,40.90
2018-04-14T16:26:00.863Z,40.63
2018-04-14T16:28:27.209Z,45.03
2018-04-14T16:30:56.188Z,36.93
2018-04-14T16:33:22.477Z,37.90
2018-04-14T16:35:48.755Z,37.27
2018-04-14T16:38:15.005Z,38.10
2018-04-14T16:40:41.265Z,36.80
2018-04-14T16:43:07.550Z,36.70
2018-04-14T16:45:33.797Z,36.80
2018-04-14T16:48:01.512Z,38.33
2018-04-14T16:50:27.885Z,36.30
2018-04-14T16:52:54.880Z,40.57
2018-04-14T16:55:20.921Z,38.90
2018-04-14T16:57:47.029Z,37.57
2018-04-14T17:00:13.352Z,39.30
2018-04-14T17:02:39.588Z,35.40
2018-04-14T17:05:08.877Z,40.90
2018-04-14T17:07:34.978Z,36.10
2018-04-14T17:10:01.064Z,39.53
2018-04-14T17:12:27.964Z,40.07
2018-04-14T17:14:54.784Z,36.57
2018-04-14T17:17:21.764Z,42.73
2018-04-14T17:19:47.984Z,40.67
2018-04-14T17:22:19.208Z,39.43
2018-04-14T17:24:45.338Z,37.80
2018-04-14T17:27:11.393Z,42.57
2018-04-14T17:29:37.463Z,36.80
2018-04-14T17:32:03.532Z,37.37
2018-04-14T17:34:33.434Z,37.43
2018-04-14T17:37:00.293Z,38.03
2018-04-14T17:39:32.085Z,32.77
2018-04-14T17:41:58.944Z,36.77
2018-04-14T17:44:25.071Z,35.67
2018-04-14T17:46:51.080Z,39.27
2018-04-14T17:49:17.136Z,37.07
2018-04-14T17:51:43.208Z,35.57
2018-04-14T17:54:09.275Z,34.57
2018-04-14T17:56:35.329Z,35.43
2018-04-14T17:59:03.790Z,34.47
2018-04-14T18:01:29.920Z,35.13
2018-04-14T18:03:56.026Z,33.07
2018-04-14T18:06:22.808Z,35.50
2018-04-14T18:08:48.934Z,40.80
2018-04-14T18:11:15.015Z,36.23
2018-04-14T18:13:41.121Z,38.30
2018-04-14T18:16:12.035Z,36.43
2018-04-14T18:18:38.116Z,39.37
2018-04-14T18:21:04.167Z,39.77
2018-04-14T18:23:30.268Z,41.23
2018-04-14T18:25:56.312Z,37.70
2018-04-14T18:28:22.357Z,40.00
2018-04-14T18:30:48.451Z,41.40
2018-04-14T18:33:19.149Z,41.33
2018-04-14T18:35:45.257Z,40.10
2018-04-14T18:38:11.337Z,40.00
2018-04-14T18:40:37.441Z,44.80
2018-04-14T18:43:03.601Z,39.47
2018-04-14T18:45:29.800Z,40.87
2018-04-14T18:47:55.882Z,43.03
2018-04-14T18:50:25.588Z,41.10
2018-04-14T18:52:51.674Z,47.80
2018-04-14T18:55:17.772Z,44.20
2018-04-14T18:57:43.846Z,43.30
2018-04-14T19:00:09.929Z,47.63
2018-04-14T19:02:36.786Z,46.03
2018-04-14T19:05:02.836Z,45.97
2018-04-14T19:07:32.383Z,53.43
2018-04-14T19:09:59.346Z,49.20
2018-04-14T19:12:25.433Z,54.83
2018-04-14T19:14:52.269Z,47.50
2018-04-14T19:17:18.481Z,50.50
2018-04-14T19:19:44.598Z,52.73
2018-04-14T19:22:10.696Z,58.50
2018-04-14T19:24:39.208Z,50.53
2018-04-14T19:27:06.056Z,50.20
2018-04-14T19:29:32.938Z,53.53
2018-04-14T19:31:59.127Z,53.67
2018-04-14T19:34:25.313Z,51.70
2018-04-14T19:36:51.368Z,52.30
2018-04-14T19:39:17.466Z,49.40
2018-04-14T19:41:43.532Z,53.47
2018-04-14T19:44:13.889Z,52.23
2018-04-14T19:46:40.705Z,55.90
2018-04-14T19:49:08.323Z,50.77
2018-04-14T19:51:34.373Z,50.80
2018-04-14T19:54:00.459Z,51.37
2018-04-14T19:56:26.587Z,56.00
2018-04-14T19:58:52.617Z,52.10
2018-04-14T20:01:23.466Z,51.63
2018-04-14T20:03:49.585Z,50.03
2018-04-14T20:06:15.660Z,53.37
2018-04-14T20:08:41.712Z,53.80
2018-04-14T20:11:08.504Z,53.93
2018-04-14T20:13:34.701Z,53.43
2018-04-14T20:16:01.534Z,54.20
2018-04-14T20:18:30.306Z,50.20
2018-04-14T20:20:56.364Z,54.50
2018-04-14T20:23:22.425Z,55.03
2018-04-14T20:25:49.272Z,51.77
2018-04-14T20:28:15.330Z,53.60
2018-04-14T20:30:41.409Z,54.70
2018-04-14T20:33:07.449Z,51.70
2018-04-14T20:35:33.525Z,55.07
2018-04-14T20:38:01.721Z,50.40
2018-04-14T20:40:31.526Z,52.60
2018-04-14T20:42:57.931Z,53.57
2018-04-14T20:45:24.047Z,54.03
2018-04-14T20:47:50.153Z,52.97
2018-04-14T20:50:16.220Z,49.80
2018-04-14T20:52:43.044Z,56.30
2018-04-14T20:55:09.113Z,54.17
2018-04-14T20:57:35.937Z,54.20
2018-04-14T21:00:02.103Z,53.33
2018-04-14T21:02:28.966Z,54.37
2018-04-14T21:04:55.058Z,48.27
2018-04-14T21:07:21.137Z,51.23
2018-04-14T21:09:48.004Z,54.77
2018-04-14T21:12:14.625Z,56.00
2018-04-14T21:14:40.705Z,47.17
2018-04-14T21:17:06.788Z,56.60
2018-04-14T21:19:32.897Z,52.57
2018-04-14T21:21:59.122Z,58.40
2018-04-14T21:24:25.236Z,56.53
2018-04-14T21:26:51.358Z,55.63
2018-04-14T21:29:17.466Z,55.50
2018-04-14T21:31:43.540Z,55.93
2018-04-14T21:34:10.357Z,59.53
2018-04-14T21:36:36.428Z,57.57
2018-04-14T21:39:03.532Z,56.20
2018-04-14T21:41:29.640Z,58.67
2018-04-14T21:43:55.736Z,61.57
2018-04-14T21:46:21.817Z,57.10
2018-04-14T21:48:47.888Z,53.40
2018-04-14T21:51:15.500Z,56.80
2018-04-14T21:53:41.575Z,59.73
2018-04-14T21:56:07.641Z,57.00
2018-04-14T21:58:33.761Z,57.47
2018-04-14T22:00:59.974Z,56.53
2018-04-14T22:03:26.084Z,61.43
2018-04-14T22:05:52.173Z,66.37
2018-04-14T22:08:18.253Z,57.17
2018-04-14T22:10:45.508Z,56.97
2018-04-14T22:13:11.585Z,62.67
2018-04-14T22:15:37.677Z,56.70
2018-04-14T22:18:03.760Z,60.63
2018-04-14T22:20:29.871Z,57.00
2018-04-14T22:22:56.742Z,57.53
2018-04-14T22:25:22.923Z,70.77
2018-04-14T22:27:49.004Z,63.00
2018-04-14T22:30:15.092Z,54.97
2018-04-14T22:32:42.811Z,67.57
2018-04-14T22:35:09.901Z,51.90
2018-04-14T22:37:35.989Z,62.23
2018-04-14T22:40:02.272Z,62.13
2018-04-14T22:42:28.412Z,63.10
2018-04-14T22:44:54.465Z,59.13
2018-04-14T22:47:20.519Z,61.07
2018-04-14T22:49:46.580Z,56.67
2018-04-14T22:52:12.678Z,59.40
2018-04-14T22:54:38.764Z,58.03
2018-04-14T22:57:05.611Z,57.77
2018-04-14T22:59:32.015Z,61.37
2018-04-14T23:01:58.195Z,62.70
2018-04-14T23:04:25.033Z,67.30
2018-04-14T23:06:51.105Z,56.93
2018-04-14T23:09:17.240Z,67.17
2018-04-14T23:11:43.322Z,62.27
2018-04-14T23:14:11.474Z,57.60
2018-04-14T23:16:37.552Z,69.70
2018-04-14T23:19:03.640Z,59.77
2018-04-14T23:21:29.771Z,67.30
2018-04-14T23:23:55.864Z,67.20
2018-04-14T23:26:21.932Z,57.80
2018-04-14T23:28:48.852Z,60.97
2018-04-14T23:31:14.924Z,62.40
2018-04-14T23:33:41.741Z,68.50
2018-04-14T23:36:07.913Z,57.40
2018-04-14T23:38:34.741Z,70.10
2018-04-14T23:41:00.869Z,65.37
2018-04-14T23:43:28.576Z,65.23
2018-04-14T23:45:55.404Z,62.43
2018-04-14T23:48:21.616Z,62.20
2018-04-14T23:50:47.732Z,70.50
2018-04-14T23:53:13.814Z,67.83
2018-04-14T23:55:39.916Z,62.63
2018-04-14T23:58:06.012Z,63.50
